sensor_id;sensor_type;location;lat;lon;timestamp;P1;durP1;ratioP1;P2;durP2;ratioP2
59062;SDS011;44851;45.648;9.004;2024-03-08T00:00:05;26.63;;;22.47;;
59062;SDS011;44851;45.648;9.004;2024-03-08T00:02:38;25.33;;;22.67;;
59062;SDS011;44851;45.648;9.004;2024-03-08T00:05:04;25.30;;;21.80;;
59062;SDS011;44851;45.648;9.004;2024-03-08T00:07:31;25.37;;;22.67;;
59062;SDS011;44851;45.648;9.004;2024-03-08T00:09:56;24.90;;;22.07;;
59062;SDS011;44851;45.648;9.004;2024-03-08T00:12:21;23.40;;;20.97;;
59062;SDS011;44851;45.648;9.004;2024-03-08T00:14:47;24.37;;;21.83;;
59062;SDS011;44851;45.648;9.004;2024-03-08T00:17:12;24.60;;;22.10;;
59062;SDS011;44851;45.648;9.004;2024-03-08T00:19:38;24.90;;;22.30;;
59062;SDS011;44851;45.648;9.004;2024-03-08T00:22:04;25.30;;;22.67;;
59062;SDS011;44851;45.648;9.004;2024-03-08T00:24:30;24.60;;;21.97;;
59062;SDS011;44851;45.648;9.004;2024-03-08T00:26:56;23.40;;;20.90;;
59062;SDS011;44851;45.648;9.004;2024-03-08T00:29:21;25.83;;;23.03;;
59062;SDS011;44851;45.648;9.004;2024-03-08T00:31:47;24.73;;;22.07;;
59062;SDS011;44851;45.648;9.004;2024-03-08T00:34:12;26.70;;;23.83;;
59062;SDS011;44851;45.648;9.004;2024-03-08T00:36:38;28.27;;;24.17;;
59062;SDS011;44851;45.648;9.004;2024-03-08T00:39:03;26.30;;;23.43;;
59062;SDS011;44851;45.648;9.004;2024-03-08T00:41:31;26.47;;;23.27;;
59062;SDS011;44851;45.648;9.004;2024-03-08T00:43:57;27.50;;;23.73;;
59062;SDS011;44851;45.648;9.004;2024-03-08T00:46:23;27.47;;;23.90;;
59062;SDS011;44851;45.648;9.004;2024-03-08T00:48:48;27.37;;;23.40;;
59062;SDS011;44851;45.648;9.004;2024-03-08T00:51:14;27.17;;;23.60;;
59062;SDS011;44851;45.648;9.004;2024-03-08T00:53:41;27.57;;;24.67;;
59062;SDS011;44851;45.648;9.004;2024-03-08T00:56:07;27.20;;;23.87;;
59062;SDS011;44851;45.648;9.004;2024-03-08T00:58:35;25.80;;;23.03;;
59062;SDS011;44851;45.648;9.004;2024-03-08T01:01:01;27.27;;;23.77;;
59062;SDS011;44851;45.648;9.004;2024-03-08T01:03:27;26.73;;;23.20;;
59062;SDS011;44851;45.648;9.004;2024-03-08T01:05:52;29.47;;;25.90;;
59062;SDS011;44851;45.648;9.004;2024-03-08T01:08:18;27.63;;;24.80;;
59062;SDS011;44851;45.648;9.004;2024-03-08T01:10:43;26.00;;;23.23;;
59062;SDS011;44851;45.648;9.004;2024-03-08T01:13:08;27.03;;;23.97;;
59062;SDS011;44851;45.648;9.004;2024-03-08T01:15:34;26.77;;;23.87;;
59062;SDS011;44851;45.648;9.004;2024-03-08T01:18:00;26.80;;;23.80;;
59062;SDS011;44851;45.648;9.004;2024-03-08T01:20:26;26.13;;;23.47;;
59062;SDS011;44851;45.648;9.004;2024-03-08T01:22:51;27.20;;;24.30;;
59062;SDS011;44851;45.648;9.004;2024-03-08T01:25:17;29.77;;;25.53;;
59062;SDS011;44851;45.648;9.004;2024-03-08T01:27:42;28.67;;;25.57;;
59062;SDS011;44851;45.648;9.004;2024-03-08T01:30:07;28.50;;;25.40;;
59062;SDS011;44851;45.648;9.004;2024-03-08T01:32:34;29.40;;;24.83;;
59062;SDS011;44851;45.648;9.004;2024-03-08T01:34:59;31.50;;;27.07;;
59062;SDS011;44851;45.648;9.004;2024-03-08T01:37:25;30.97;;;26.90;;
59062;SDS011;44851;45.648;9.004;2024-03-08T01:39:50;29.37;;;26.17;;
59062;SDS011;44851;45.648;9.004;2024-03-08T01:42:16;31.03;;;26.27;;
59062;SDS011;44851;45.648;9.004;2024-03-08T01:44:42;29.90;;;26.67;;
59062;SDS011;44851;45.648;9.004;2024-03-08T01:47:09;32.20;;;28.80;;
59062;SDS011;44851;45.648;9.004;2024-03-08T01:49:36;32.73;;;27.30;;
59062;SDS011;44851;45.648;9.004;2024-03-08T01:52:02;31.10;;;27.83;;
59062;SDS011;44851;45.648;9.004;2024-03-08T01:54:28;32.87;;;27.43;;
59062;SDS011;44851;45.648;9.004;2024-03-08T01:56:55;29.30;;;26.20;;
59062;SDS011;44851;45.648;9.004;2024-03-08T01:59:22;32.73;;;27.87;;
59062;SDS011;44851;45.648;9.004;2024-03-08T02:01:48;32.90;;;27.43;;
59062;SDS011;44851;45.648;9.004;2024-03-08T02:04:14;32.23;;;27.23;;
59062;SDS011;44851;45.648;9.004;2024-03-08T02:06:39;30.43;;;26.33;;
59062;SDS011;44851;45.648;9.004;2024-03-08T02:09:04;30.50;;;27.03;;
59062;SDS011;44851;45.648;9.004;2024-03-08T02:11:33;29.23;;;25.97;;
59062;SDS011;44851;45.648;9.004;2024-03-08T02:13:59;29.13;;;25.37;;
59062;SDS011;44851;45.648;9.004;2024-03-08T02:16:25;29.30;;;26.00;;
59062;SDS011;44851;45.648;9.004;2024-03-08T02:18:50;30.30;;;25.33;;
59062;SDS011;44851;45.648;9.004;2024-03-08T02:21:18;31.93;;;25.53;;
59062;SDS011;44851;45.648;9.004;2024-03-08T02:23:44;28.90;;;25.90;;
59062;SDS011;44851;45.648;9.004;2024-03-08T02:26:09;28.97;;;25.40;;
59062;SDS011;44851;45.648;9.004;2024-03-08T02:28:35;30.30;;;25.57;;
59062;SDS011;44851;45.648;9.004;2024-03-08T02:31:01;31.43;;;25.30;;
59062;SDS011;44851;45.648;9.004;2024-03-08T02:33:27;28.30;;;24.67;;
59062;SDS011;44851;45.648;9.004;2024-03-08T02:35:53;27.50;;;24.13;;
59062;SDS011;44851;45.648;9.004;2024-03-08T02:38:20;28.03;;;23.87;;
59062;SDS011;44851;45.648;9.004;2024-03-08T02:40:47;27.37;;;23.93;;
59062;SDS011;44851;45.648;9.004;2024-03-08T02:43:14;30.07;;;24.53;;
59062;SDS011;44851;45.648;9.004;2024-03-08T02:45:40;30.83;;;25.17;;
59062;SDS011;44851;45.648;9.004;2024-03-08T02:48:09;29.27;;;23.90;;
59062;SDS011;44851;45.648;9.004;2024-03-08T02:50:35;26.40;;;22.83;;
59062;SDS011;44851;45.648;9.004;2024-03-08T02:53:01;26.80;;;23.90;;
59062;SDS011;44851;45.648;9.004;2024-03-08T02:55:26;25.83;;;22.73;;
59062;SDS011;44851;45.648;9.004;2024-03-08T02:57:52;26.47;;;23.57;;
59062;SDS011;44851;45.648;9.004;2024-03-08T03:00:19;26.00;;;22.90;;
59062;SDS011;44851;45.648;9.004;2024-03-08T03:02:46;25.90;;;22.83;;
59062;SDS011;44851;45.648;9.004;2024-03-08T03:05:11;27.67;;;23.63;;
59062;SDS011;44851;45.648;9.004;2024-03-08T03:07:38;26.53;;;23.73;;
59062;SDS011;44851;45.648;9.004;2024-03-08T03:10:03;27.17;;;22.93;;
59062;SDS011;44851;45.648;9.004;2024-03-08T03:12:30;26.07;;;22.67;;
59062;SDS011;44851;45.648;9.004;2024-03-08T03:14:56;27.07;;;23.90;;
59062;SDS011;44851;45.648;9.004;2024-03-08T03:17:23;26.70;;;23.33;;
59062;SDS011;44851;45.648;9.004;2024-03-08T03:19:49;28.70;;;23.93;;
59062;SDS011;44851;45.648;9.004;2024-03-08T03:22:15;28.00;;;23.73;;
59062;SDS011;44851;45.648;9.004;2024-03-08T03:24:40;30.43;;;25.37;;
59062;SDS011;44851;45.648;9.004;2024-03-08T03:27:07;32.30;;;25.97;;
59062;SDS011;44851;45.648;9.004;2024-03-08T03:29:36;35.43;;;28.03;;
59062;SDS011;44851;45.648;9.004;2024-03-08T03:32:07;30.87;;;25.50;;
59062;SDS011;44851;45.648;9.004;2024-03-08T03:34:35;33.23;;;26.97;;
59062;SDS011;44851;45.648;9.004;2024-03-08T03:37:01;31.20;;;25.10;;
59062;SDS011;44851;45.648;9.004;2024-03-08T03:39:28;33.80;;;27.03;;
59062;SDS011;44851;45.648;9.004;2024-03-08T03:41:57;31.73;;;26.20;;
59062;SDS011;44851;45.648;9.004;2024-03-08T03:44:22;33.90;;;26.37;;
59062;SDS011;44851;45.648;9.004;2024-03-08T03:46:48;36.90;;;28.13;;
59062;SDS011;44851;45.648;9.004;2024-03-08T03:49:15;37.67;;;29.63;;
59062;SDS011;44851;45.648;9.004;2024-03-08T03:51:41;39.30;;;30.47;;
59062;SDS011;44851;45.648;9.004;2024-03-08T03:54:07;33.73;;;27.73;;
59062;SDS011;44851;45.648;9.004;2024-03-08T03:56:32;34.63;;;27.60;;
59062;SDS011;44851;45.648;9.004;2024-03-08T03:58:58;32.27;;;26.67;;
59062;SDS011;44851;45.648;9.004;2024-03-08T04:01:23;38.77;;;30.33;;
59062;SDS011;44851;45.648;9.004;2024-03-08T04:03:49;38.07;;;30.73;;
59062;SDS011;44851;45.648;9.004;2024-03-08T04:06:14;31.10;;;26.27;;
59062;SDS011;44851;45.648;9.004;2024-03-08T04:08:40;33.37;;;25.70;;
59062;SDS011;44851;45.648;9.004;2024-03-08T04:11:06;28.40;;;24.50;;
59062;SDS011;44851;45.648;9.004;2024-03-08T04:13:32;28.87;;;24.03;;
59062;SDS011;44851;45.648;9.004;2024-03-08T04:15:57;28.70;;;24.03;;
59062;SDS011;44851;45.648;9.004;2024-03-08T04:18:23;29.50;;;24.73;;
59062;SDS011;44851;45.648;9.004;2024-03-08T04:20:48;31.07;;;25.17;;
59062;SDS011;44851;45.648;9.004;2024-03-08T04:23:14;31.37;;;25.70;;
59062;SDS011;44851;45.648;9.004;2024-03-08T04:25:41;29.83;;;24.27;;
59062;SDS011;44851;45.648;9.004;2024-03-08T04:28:07;27.53;;;24.43;;
59062;SDS011;44851;45.648;9.004;2024-03-08T04:30:35;31.57;;;25.33;;
59062;SDS011;44851;45.648;9.004;2024-03-08T04:33:02;28.43;;;24.23;;
59062;SDS011;44851;45.648;9.004;2024-03-08T04:35:28;29.57;;;23.87;;
59062;SDS011;44851;45.648;9.004;2024-03-08T04:37:54;31.57;;;25.83;;
59062;SDS011;44851;45.648;9.004;2024-03-08T04:40:19;30.33;;;25.63;;
59062;SDS011;44851;45.648;9.004;2024-03-08T04:42:44;31.23;;;25.20;;
59062;SDS011;44851;45.648;9.004;2024-03-08T04:45:10;31.47;;;26.50;;
59062;SDS011;44851;45.648;9.004;2024-03-08T04:47:38;32.10;;;26.33;;
59062;SDS011;44851;45.648;9.004;2024-03-08T04:50:04;32.77;;;26.37;;
59062;SDS011;44851;45.648;9.004;2024-03-08T04:52:30;30.70;;;25.70;;
59062;SDS011;44851;45.648;9.004;2024-03-08T04:54:55;28.03;;;23.93;;
59062;SDS011;44851;45.648;9.004;2024-03-08T04:57:21;29.87;;;25.23;;
59062;SDS011;44851;45.648;9.004;2024-03-08T04:59:46;29.00;;;24.57;;
59062;SDS011;44851;45.648;9.004;2024-03-08T05:02:12;29.07;;;24.83;;
59062;SDS011;44851;45.648;9.004;2024-03-08T05:04:37;30.00;;;23.73;;
59062;SDS011;44851;45.648;9.004;2024-03-08T05:07:02;31.00;;;25.83;;
59062;SDS011;44851;45.648;9.004;2024-03-08T05:09:29;31.43;;;25.63;;
59062;SDS011;44851;45.648;9.004;2024-03-08T05:11:56;30.37;;;25.37;;
59062;SDS011;44851;45.648;9.004;2024-03-08T05:14:24;31.83;;;25.23;;
59062;SDS011;44851;45.648;9.004;2024-03-08T05:16:50;31.90;;;26.40;;
59062;SDS011;44851;45.648;9.004;2024-03-08T05:19:16;32.97;;;25.87;;
59062;SDS011;44851;45.648;9.004;2024-03-08T05:21:45;32.07;;;26.47;;
59062;SDS011;44851;45.648;9.004;2024-03-08T05:24:11;33.83;;;27.13;;
59062;SDS011;44851;45.648;9.004;2024-03-08T05:26:38;34.40;;;27.93;;
59062;SDS011;44851;45.648;9.004;2024-03-08T05:29:04;35.17;;;29.07;;
59062;SDS011;44851;45.648;9.004;2024-03-08T05:31:30;37.87;;;28.80;;
59062;SDS011;44851;45.648;9.004;2024-03-08T05:34:03;36.73;;;29.00;;
59062;SDS011;44851;45.648;9.004;2024-03-08T05:36:28;36.73;;;29.50;;
59062;SDS011;44851;45.648;9.004;2024-03-08T05:38:54;36.73;;;29.60;;
59062;SDS011;44851;45.648;9.004;2024-03-08T05:41:19;34.77;;;29.00;;
59062;SDS011;44851;45.648;9.004;2024-03-08T05:43:45;37.07;;;31.57;;
59062;SDS011;44851;45.648;9.004;2024-03-08T05:46:10;37.93;;;31.67;;
59062;SDS011;44851;45.648;9.004;2024-03-08T05:48:36;41.13;;;34.63;;
59062;SDS011;44851;45.648;9.004;2024-03-08T05:51:02;43.63;;;34.13;;
59062;SDS011;44851;45.648;9.004;2024-03-08T05:53:28;42.27;;;33.03;;
59062;SDS011;44851;45.648;9.004;2024-03-08T05:55:56;38.30;;;30.07;;
59062;SDS011;44851;45.648;9.004;2024-03-08T05:58:22;35.17;;;29.47;;
59062;SDS011;44851;45.648;9.004;2024-03-08T06:00:47;39.03;;;30.97;;
59062;SDS011;44851;45.648;9.004;2024-03-08T06:03:13;35.87;;;29.30;;
59062;SDS011;44851;45.648;9.004;2024-03-08T06:05:38;36.27;;;30.10;;
59062;SDS011;44851;45.648;9.004;2024-03-08T06:08:06;36.17;;;30.23;;
59062;SDS011;44851;45.648;9.004;2024-03-08T06:10:32;35.80;;;30.83;;
59062;SDS011;44851;45.648;9.004;2024-03-08T06:12:58;36.03;;;30.17;;
59062;SDS011;44851;45.648;9.004;2024-03-08T06:15:25;37.33;;;30.30;;
59062;SDS011;44851;45.648;9.004;2024-03-08T06:17:50;38.80;;;31.73;;
59062;SDS011;44851;45.648;9.004;2024-03-08T06:20:17;35.20;;;29.03;;
59062;SDS011;44851;45.648;9.004;2024-03-08T06:22:43;35.47;;;29.20;;
59062;SDS011;44851;45.648;9.004;2024-03-08T06:25:10;38.63;;;30.50;;
59062;SDS011;44851;45.648;9.004;2024-03-08T06:27:41;39.77;;;31.10;;
59062;SDS011;44851;45.648;9.004;2024-03-08T06:30:11;39.57;;;31.47;;
59062;SDS011;44851;45.648;9.004;2024-03-08T06:32:37;36.07;;;29.77;;
59062;SDS011;44851;45.648;9.004;2024-03-08T06:35:03;37.73;;;30.23;;
59062;SDS011;44851;45.648;9.004;2024-03-08T06:37:31;38.33;;;30.83;;
59062;SDS011;44851;45.648;9.004;2024-03-08T06:39:59;37.13;;;30.33;;
59062;SDS011;44851;45.648;9.004;2024-03-08T06:42:26;36.87;;;29.60;;
59062;SDS011;44851;45.648;9.004;2024-03-08T06:44:52;37.47;;;30.03;;
59062;SDS011;44851;45.648;9.004;2024-03-08T06:47:20;37.70;;;29.97;;
59062;SDS011;44851;45.648;9.004;2024-03-08T06:49:46;36.57;;;29.13;;
59062;SDS011;44851;45.648;9.004;2024-03-08T06:52:11;37.20;;;29.40;;
59062;SDS011;44851;45.648;9.004;2024-03-08T06:54:37;41.43;;;29.93;;
59062;SDS011;44851;45.648;9.004;2024-03-08T06:57:05;32.43;;;27.57;;
59062;SDS011;44851;45.648;9.004;2024-03-08T06:59:30;37.43;;;29.27;;
59062;SDS011;44851;45.648;9.004;2024-03-08T07:01:56;35.37;;;28.50;;
59062;SDS011;44851;45.648;9.004;2024-03-08T07:04:22;32.57;;;27.67;;
59062;SDS011;44851;45.648;9.004;2024-03-08T07:06:51;33.73;;;27.93;;
59062;SDS011;44851;45.648;9.004;2024-03-08T07:09:16;32.33;;;27.93;;
59062;SDS011;44851;45.648;9.004;2024-03-08T07:11:42;35.13;;;28.73;;
59062;SDS011;44851;45.648;9.004;2024-03-08T07:14:08;32.77;;;27.27;;
59062;SDS011;44851;45.648;9.004;2024-03-08T07:16:33;34.10;;;28.93;;
59062;SDS011;44851;45.648;9.004;2024-03-08T07:19:00;33.30;;;27.00;;
59062;SDS011;44851;45.648;9.004;2024-03-08T07:21:26;33.83;;;27.83;;
59062;SDS011;44851;45.648;9.004;2024-03-08T07:23:52;33.60;;;26.73;;
59062;SDS011;44851;45.648;9.004;2024-03-08T07:26:26;31.77;;;25.83;;
59062;SDS011;44851;45.648;9.004;2024-03-08T07:28:52;49.43;;;26.67;;
59062;SDS011;44851;45.648;9.004;2024-03-08T07:31:20;31.20;;;23.63;;
59062;SDS011;44851;45.648;9.004;2024-03-08T07:33:51;35.37;;;22.03;;
59062;SDS011;44851;45.648;9.004;2024-03-08T07:36:18;31.47;;;19.93;;
59062;SDS011;44851;45.648;9.004;2024-03-08T07:38:43;47.67;;;22.27;;
59062;SDS011;44851;45.648;9.004;2024-03-08T07:41:11;26.87;;;19.63;;
59062;SDS011;44851;45.648;9.004;2024-03-08T07:43:37;20.43;;;18.23;;
59062;SDS011;44851;45.648;9.004;2024-03-08T07:46:03;20.47;;;17.43;;
59062;SDS011;44851;45.648;9.004;2024-03-08T07:48:28;19.33;;;17.23;;
59062;SDS011;44851;45.648;9.004;2024-03-08T07:50:55;21.50;;;18.20;;
59062;SDS011;44851;45.648;9.004;2024-03-08T07:53:21;21.17;;;18.47;;
59062;SDS011;44851;45.648;9.004;2024-03-08T07:55:46;20.40;;;17.97;;
59062;SDS011;44851;45.648;9.004;2024-03-08T07:58:12;23.23;;;18.87;;
59062;SDS011;44851;45.648;9.004;2024-03-08T08:00:38;22.60;;;19.70;;
59062;SDS011;44851;45.648;9.004;2024-03-08T08:03:04;27.07;;;18.57;;
59062;SDS011;44851;45.648;9.004;2024-03-08T08:05:30;23.23;;;18.03;;
59062;SDS011;44851;45.648;9.004;2024-03-08T08:08:00;18.63;;;16.57;;
59062;SDS011;44851;45.648;9.004;2024-03-08T08:10:25;18.60;;;16.70;;
59062;SDS011;44851;45.648;9.004;2024-03-08T08:12:51;28.67;;;22.97;;
59062;SDS011;44851;45.648;9.004;2024-03-08T08:15:17;26.53;;;21.17;;
59062;SDS011;44851;45.648;9.004;2024-03-08T08:17:43;26.10;;;19.63;;
59062;SDS011;44851;45.648;9.004;2024-03-08T08:20:09;21.67;;;16.23;;
59062;SDS011;44851;45.648;9.004;2024-03-08T08:22:38;19.63;;;16.20;;
59062;SDS011;44851;45.648;9.004;2024-03-08T08:25:08;31.83;;;19.03;;
59062;SDS011;44851;45.648;9.004;2024-03-08T08:27:34;26.90;;;16.60;;
59062;SDS011;44851;45.648;9.004;2024-03-08T08:30:01;20.43;;;16.57;;
59062;SDS011;44851;45.648;9.004;2024-03-08T08:32:43;19.70;;;15.97;;
59062;SDS011;44851;45.648;9.004;2024-03-08T08:35:09;18.70;;;16.17;;
59062;SDS011;44851;45.648;9.004;2024-03-08T08:37:40;18.53;;;15.47;;
59062;SDS011;44851;45.648;9.004;2024-03-08T08:40:07;19.40;;;15.90;;
59062;SDS011;44851;45.648;9.004;2024-03-08T08:42:39;20.63;;;16.10;;
59062;SDS011;44851;45.648;9.004;2024-03-08T08:45:07;21.07;;;16.13;;
59062;SDS011;44851;45.648;9.004;2024-03-08T08:47:34;21.60;;;17.40;;
59062;SDS011;44851;45.648;9.004;2024-03-08T08:50:00;19.70;;;16.33;;
59062;SDS011;44851;45.648;9.004;2024-03-08T08:52:26;17.87;;;15.57;;
59062;SDS011;44851;45.648;9.004;2024-03-08T08:54:54;18.27;;;15.53;;
59062;SDS011;44851;45.648;9.004;2024-03-08T08:57:19;17.70;;;15.33;;
59062;SDS011;44851;45.648;9.004;2024-03-08T08:59:45;19.53;;;16.97;;
59062;SDS011;44851;45.648;9.004;2024-03-08T09:02:11;26.97;;;17.47;;
59062;SDS011;44851;45.648;9.004;2024-03-08T09:04:36;21.47;;;16.67;;
59062;SDS011;44851;45.648;9.004;2024-03-08T09:07:01;19.20;;;16.40;;
59062;SDS011;44851;45.648;9.004;2024-03-08T09:09:27;17.53;;;15.00;;
59062;SDS011;44851;45.648;9.004;2024-03-08T09:11:52;27.10;;;22.83;;
59062;SDS011;44851;45.648;9.004;2024-03-08T09:14:19;20.30;;;16.80;;
59062;SDS011;44851;45.648;9.004;2024-03-08T09:16:45;21.93;;;16.53;;
59062;SDS011;44851;45.648;9.004;2024-03-08T09:19:12;21.17;;;15.47;;
59062;SDS011;44851;45.648;9.004;2024-03-08T09:21:37;18.10;;;15.87;;
59062;SDS011;44851;45.648;9.004;2024-03-08T09:24:05;20.13;;;16.50;;
59062;SDS011;44851;45.648;9.004;2024-03-08T09:26:31;18.60;;;16.57;;
59062;SDS011;44851;45.648;9.004;2024-03-08T09:28:58;19.87;;;17.77;;
59062;SDS011;44851;45.648;9.004;2024-03-08T09:31:24;18.40;;;16.40;;
59062;SDS011;44851;45.648;9.004;2024-03-08T09:33:50;20.00;;;16.37;;
59062;SDS011;44851;45.648;9.004;2024-03-08T09:36:16;18.17;;;15.07;;
59062;SDS011;44851;45.648;9.004;2024-03-08T09:38:42;20.57;;;16.50;;
59062;SDS011;44851;45.648;9.004;2024-03-08T09:41:07;23.13;;;16.60;;
59062;SDS011;44851;45.648;9.004;2024-03-08T09:43:34;23.03;;;17.97;;
59062;SDS011;44851;45.648;9.004;2024-03-08T09:46:00;25.00;;;19.40;;
59062;SDS011;44851;45.648;9.004;2024-03-08T09:48:25;19.83;;;17.57;;
59062;SDS011;44851;45.648;9.004;2024-03-08T09:50:51;23.10;;;18.60;;
59062;SDS011;44851;45.648;9.004;2024-03-08T09:53:16;20.03;;;16.20;;
59062;SDS011;44851;45.648;9.004;2024-03-08T09:55:42;20.07;;;16.57;;
59062;SDS011;44851;45.648;9.004;2024-03-08T09:58:10;20.60;;;17.00;;
59062;SDS011;44851;45.648;9.004;2024-03-08T10:00:55;18.53;;;15.77;;
59062;SDS011;44851;45.648;9.004;2024-03-08T10:03:22;21.40;;;17.93;;
59062;SDS011;44851;45.648;9.004;2024-03-08T10:05:48;19.27;;;16.30;;
59062;SDS011;44851;45.648;9.004;2024-03-08T10:08:14;26.07;;;22.67;;
59062;SDS011;44851;45.648;9.004;2024-03-08T10:10:39;28.10;;;23.93;;
59062;SDS011;44851;45.648;9.004;2024-03-08T10:13:05;18.23;;;16.00;;
59062;SDS011;44851;45.648;9.004;2024-03-08T10:15:31;20.53;;;17.80;;
59062;SDS011;44851;45.648;9.004;2024-03-08T10:17:58;23.30;;;18.93;;
59062;SDS011;44851;45.648;9.004;2024-03-08T10:20:24;19.27;;;17.07;;
59062;SDS011;44851;45.648;9.004;2024-03-08T10:22:51;20.23;;;16.03;;
59062;SDS011;44851;45.648;9.004;2024-03-08T10:25:18;20.90;;;16.17;;
59062;SDS011;44851;45.648;9.004;2024-03-08T10:27:44;18.67;;;16.40;;
59062;SDS011;44851;45.648;9.004;2024-03-08T10:30:10;16.77;;;14.57;;
59062;SDS011;44851;45.648;9.004;2024-03-08T10:32:39;18.53;;;15.30;;
59062;SDS011;44851;45.648;9.004;2024-03-08T10:35:06;18.90;;;16.17;;
59062;SDS011;44851;45.648;9.004;2024-03-08T10:37:33;17.97;;;14.93;;
59062;SDS011;44851;45.648;9.004;2024-03-08T10:40:11;19.53;;;15.43;;
59062;SDS011;44851;45.648;9.004;2024-03-08T10:42:46;18.03;;;15.30;;
59062;SDS011;44851;45.648;9.004;2024-03-08T10:47:51;20.80;;;16.30;;
59062;SDS011;44851;45.648;9.004;2024-03-08T10:50:29;18.10;;;15.60;;
59062;SDS011;44851;45.648;9.004;2024-03-08T10:52:59;17.43;;;15.53;;
59062;SDS011;44851;45.648;9.004;2024-03-08T10:55:26;18.60;;;16.60;;
59062;SDS011;44851;45.648;9.004;2024-03-08T10:57:53;18.60;;;15.73;;
59062;SDS011;44851;45.648;9.004;2024-03-08T11:00:19;18.03;;;15.90;;
59062;SDS011;44851;45.648;9.004;2024-03-08T11:02:51;20.23;;;16.03;;
59062;SDS011;44851;45.648;9.004;2024-03-08T11:05:37;19.20;;;15.77;;
59062;SDS011;44851;45.648;9.004;2024-03-08T11:10:46;19.27;;;16.80;;
59062;SDS011;44851;45.648;9.004;2024-03-08T11:13:42;20.80;;;15.73;;
59062;SDS011;44851;45.648;9.004;2024-03-08T11:16:11;19.70;;;16.00;;
59062;SDS011;44851;45.648;9.004;2024-03-08T11:19:01;17.77;;;15.80;;
59062;SDS011;44851;45.648;9.004;2024-03-08T11:21:36;18.00;;;15.37;;
59062;SDS011;44851;45.648;9.004;2024-03-08T11:24:13;18.53;;;16.63;;
59062;SDS011;44851;45.648;9.004;2024-03-08T11:26:41;20.10;;;17.97;;
59062;SDS011;44851;45.648;9.004;2024-03-08T11:32:10;19.33;;;16.47;;
59062;SDS011;44851;45.648;9.004;2024-03-08T11:34:37;18.60;;;16.33;;
59062;SDS011;44851;45.648;9.004;2024-03-08T11:37:19;18.53;;;16.50;;
59062;SDS011;44851;45.648;9.004;2024-03-08T11:39:48;18.27;;;15.57;;
59062;SDS011;44851;45.648;9.004;2024-03-08T11:42:27;16.87;;;15.07;;
59062;SDS011;44851;45.648;9.004;2024-03-08T11:44:53;17.50;;;14.47;;
59062;SDS011;44851;45.648;9.004;2024-03-08T11:47:18;20.67;;;16.03;;
59062;SDS011;44851;45.648;9.004;2024-03-08T11:49:44;17.77;;;15.97;;
59062;SDS011;44851;45.648;9.004;2024-03-08T11:52:13;18.90;;;15.43;;
59062;SDS011;44851;45.648;9.004;2024-03-08T11:54:41;17.53;;;15.63;;
59062;SDS011;44851;45.648;9.004;2024-03-08T11:57:08;17.30;;;14.83;;
59062;SDS011;44851;45.648;9.004;2024-03-08T11:59:35;16.73;;;14.97;;
59062;SDS011;44851;45.648;9.004;2024-03-08T12:02:01;20.40;;;16.83;;
59062;SDS011;44851;45.648;9.004;2024-03-08T12:04:31;24.30;;;16.53;;
59062;SDS011;44851;45.648;9.004;2024-03-08T12:06:59;21.53;;;16.30;;
59062;SDS011;44851;45.648;9.004;2024-03-08T12:09:28;19.60;;;17.60;;
59062;SDS011;44851;45.648;9.004;2024-03-08T12:11:54;20.33;;;17.83;;
59062;SDS011;44851;45.648;9.004;2024-03-08T12:14:19;19.20;;;17.27;;
59062;SDS011;44851;45.648;9.004;2024-03-08T12:16:45;18.57;;;16.77;;
59062;SDS011;44851;45.648;9.004;2024-03-08T12:19:13;19.77;;;17.47;;
59062;SDS011;44851;45.648;9.004;2024-03-08T12:21:39;18.27;;;16.57;;
59062;SDS011;44851;45.648;9.004;2024-03-08T12:24:11;25.43;;;16.57;;
59062;SDS011;44851;45.648;9.004;2024-03-08T12:26:41;17.37;;;15.03;;
59062;SDS011;44851;45.648;9.004;2024-03-08T12:29:24;20.70;;;18.53;;
59062;SDS011;44851;45.648;9.004;2024-03-08T12:31:50;16.63;;;14.90;;
59062;SDS011;44851;45.648;9.004;2024-03-08T12:34:18;17.43;;;15.63;;
59062;SDS011;44851;45.648;9.004;2024-03-08T12:36:47;18.73;;;15.83;;
59062;SDS011;44851;45.648;9.004;2024-03-08T12:39:16;18.87;;;16.83;;
59062;SDS011;44851;45.648;9.004;2024-03-08T12:41:52;18.33;;;16.53;;
59062;SDS011;44851;45.648;9.004;2024-03-08T12:44:18;17.97;;;16.13;;
59062;SDS011;44851;45.648;9.004;2024-03-08T12:46:46;15.80;;;14.10;;
59062;SDS011;44851;45.648;9.004;2024-03-08T12:49:13;17.27;;;14.90;;
59062;SDS011;44851;45.648;9.004;2024-03-08T12:51:42;15.67;;;14.07;;
59062;SDS011;44851;45.648;9.004;2024-03-08T12:54:08;16.27;;;14.57;;
59062;SDS011;44851;45.648;9.004;2024-03-08T12:56:34;16.70;;;14.50;;
59062;SDS011;44851;45.648;9.004;2024-03-08T12:59:02;16.33;;;14.63;;
59062;SDS011;44851;45.648;9.004;2024-03-08T13:01:28;16.20;;;14.50;;
59062;SDS011;44851;45.648;9.004;2024-03-08T13:03:55;17.23;;;15.43;;
59062;SDS011;44851;45.648;9.004;2024-03-08T13:06:31;17.90;;;16.03;;
59062;SDS011;44851;45.648;9.004;2024-03-08T13:08:56;17.30;;;15.47;;
59062;SDS011;44851;45.648;9.004;2024-03-08T13:11:23;16.27;;;14.57;;
59062;SDS011;44851;45.648;9.004;2024-03-08T13:13:49;17.07;;;14.77;;
59062;SDS011;44851;45.648;9.004;2024-03-08T13:16:14;15.87;;;14.23;;
59062;SDS011;44851;45.648;9.004;2024-03-08T13:18:40;17.47;;;15.77;;
59062;SDS011;44851;45.648;9.004;2024-03-08T13:21:12;18.87;;;16.87;;
59062;SDS011;44851;45.648;9.004;2024-03-08T13:23:40;19.37;;;17.17;;
59062;SDS011;44851;45.648;9.004;2024-03-08T13:26:09;17.27;;;15.43;;
59062;SDS011;44851;45.648;9.004;2024-03-08T13:28:43;17.20;;;15.40;;
59062;SDS011;44851;45.648;9.004;2024-03-08T13:31:14;16.60;;;14.30;;
59062;SDS011;44851;45.648;9.004;2024-03-08T13:33:40;17.10;;;15.37;;
59062;SDS011;44851;45.648;9.004;2024-03-08T13:36:07;18.23;;;15.20;;
59062;SDS011;44851;45.648;9.004;2024-03-08T13:38:39;17.10;;;15.33;;
59062;SDS011;44851;45.648;9.004;2024-03-08T13:41:09;17.80;;;15.00;;
59062;SDS011;44851;45.648;9.004;2024-03-08T13:43:36;17.07;;;15.37;;
59062;SDS011;44851;45.648;9.004;2024-03-08T13:46:02;17.60;;;15.70;;
59062;SDS011;44851;45.648;9.004;2024-03-08T13:48:28;24.47;;;18.90;;
59062;SDS011;44851;45.648;9.004;2024-03-08T13:50:53;18.57;;;16.63;;
59062;SDS011;44851;45.648;9.004;2024-03-08T13:53:20;18.93;;;15.77;;
59062;SDS011;44851;45.648;9.004;2024-03-08T13:55:45;18.70;;;16.17;;
59062;SDS011;44851;45.648;9.004;2024-03-08T13:58:11;19.00;;;17.10;;
59062;SDS011;44851;45.648;9.004;2024-03-08T14:00:39;18.37;;;16.17;;
59062;SDS011;44851;45.648;9.004;2024-03-08T14:03:06;19.07;;;15.97;;
59062;SDS011;44851;45.648;9.004;2024-03-08T14:05:32;18.87;;;15.80;;
59062;SDS011;44851;45.648;9.004;2024-03-08T14:08:03;18.00;;;16.10;;
59062;SDS011;44851;45.648;9.004;2024-03-08T14:10:29;18.30;;;16.40;;
59062;SDS011;44851;45.648;9.004;2024-03-08T14:12:56;17.43;;;15.63;;
59062;SDS011;44851;45.648;9.004;2024-03-08T14:15:22;16.50;;;14.83;;
59062;SDS011;44851;45.648;9.004;2024-03-08T14:17:53;18.27;;;16.37;;
59062;SDS011;44851;45.648;9.004;2024-03-08T14:20:20;18.47;;;16.67;;
59062;SDS011;44851;45.648;9.004;2024-03-08T14:22:50;17.67;;;15.87;;
59062;SDS011;44851;45.648;9.004;2024-03-08T14:25:16;17.97;;;15.90;;
59062;SDS011;44851;45.648;9.004;2024-03-08T14:27:43;17.50;;;15.60;;